默认 日期 大小 文件数 浏览量 最新下载 xml
2016磁力链接相关资源由用户搜索指令自动获取,结果来源于网络,本站不存储任何资料,亦不承担任何责任,请于24小时内删除,搜索到564068个磁力,显示前4000条数据,用时31ms。
    {"Lucas Firmo UPLOADER.mp4": 1084536, "Jason Bourne 720p (2016) Dual Áudio BluRay 5.1 -- By - Lucas Firmo.mkv": 1149864812, "Jason Bourne 720p (2016) Dual Áudio BluRay 5.1 -- By - Lucas Firmo.srt": 69616}
创建时间: 2018-10-28 10:14:34 大小:1.07 GB 文件数量:3 热度:47 最近下载:2025-09-17 04:23:09
    {"Hidden.Figures.2016.720p.BRRiP.x265.ShAaNiG.mkv": 843320553, "Hidden.Figures.2016.720p.BRRiP.x265.ShAaNiG.srt": 171928}
创建时间: 2018-10-28 10:14:55 大小:804.42 MB 文件数量:2 热度:24 最近下载:2025-08-26 03:04:01
    {"www.YTS.AM.jpg": 58132, "Along.For.The.Ride.2016.720p.WEBRip.x264-[YTS.AM].mp4": 886100232}
创建时间: 2018-10-28 10:14:59 大小:845.11 MB 文件数量:2 热度:21 最近下载:2025-08-10 16:30:02
    ... 然20岁.Suddenly.Twenty.2016.HD1080P.X264.AAC.Thai.CHS ...
创建时间: 2018-10-28 10:18:24 大小:1.48 GB 文件数量:7 热度:210 最近下载:2025-10-12 14:35:03
    {"x64": {"PhotoshopCC-2017.0.1.exe": 1003064768, "Тихая распаковка.cmd": 30}, "x86": {"PhotoshopCC-2017.0.1.exe": 918195540, "Тихая распаковка.cmd": 30}}
创建时间: 2018-10-28 10:19:25 大小:1.79 GB 文件数量:4 热度:60 最近下载:2025-08-12 18:26:01
    {"05. Riot.mp3": 5091988, "04. Zombies.mp3": 11360334, "06. Redbone.mp3": 13164872, "09. Baby Boy.mp3": 15371698, "03. Boogieman.mp3": 8760629, "08. Terrified.mp3": 10306034, "07. California.mp3": 6698002, "11. Stand Tall.mp3": 14918215, "02. Have Some ...
创建时间: 2018-10-28 10:20:24 大小:113.14 MB 文件数量:11 热度:39 最近下载:2025-08-25 09:45:01
    {"Sample.mkv": 84701777, "readme.txt": 352, "Torrent-Downloaded-From-ExtraTorrent.cc.txt": 352, "Now.You.See.Me.2.2016.720p.BluRay.x264.DD5.1-iFT.mkv": 8789291402}
创建时间: 2018-10-28 10:20:36 大小:8.26 GB 文件数量:4 热度:38 最近下载:2025-10-10 00:51:03
    ... jpg": 430104, "tessa-fowler-halloween-2016-set-2-10.jpg": 403848 ... , "tessa-fowler-halloween-2016-set-2-11.jpg": 427688 ... , "tessa-fowler-halloween-2016-set-2-12.jpg": 426619 ... jpg": 445862, "tessa-fowler-halloween-2016-set-2-22.jpg": 445839}
创建时间: 2018-10-28 10:20:59 大小:8.87 MB 文件数量:22 热度:78 最近下载:2025-09-12 04:38:02
    ... .avi": 4777174, "Taplo.Telapo.-2.2016.CAM.HUN.cinema.zsozso.avi ...
创建时间: 2018-10-28 10:21:06 大小:1.25 GB 文件数量:16 热度:19 最近下载:2025-08-12 02:14:02
    {"www.alt-torrent.com.txt": 400, "POR FAVOR!.....COMPARTAN!.txt": 111, "Ice Age - Collision Course (2016) 720p LAT - ZeiZ.jpg": 85179, "Ice Age - Collision Course (2016) 720p LAT - ZeiZ.mkv": 1246803062}
创建时间: 2018-10-28 10:21:29 大小:1.16 GB 文件数量:4 热度:44 最近下载:2025-09-28 20:14:02
    ... .com.txt": 3262, "KMSAuto Net 2016 1.5.3 Portable [CracksNow ...
创建时间: 2018-10-28 10:22:18 大小:3.65 GB 文件数量:11 热度:45 最近下载:2025-09-16 21:37:06
    {"18+ American Honey 2016 UNCENSORED English Movies HDRip XviD AAC New Source ☻rDX☻.mkv": 746748471, "Sample ~ 18+ American Honey 2016 UNCENSORED English Movies HDRip XviD AAC New Source ☻rDX☻.mkv": 5634514}
创建时间: 2018-10-28 10:22:25 大小:717.53 MB 文件数量:2 热度:67 最近下载:2025-08-08 15:24:03
    {"RARBG.txt": 30, "bull.2016.207.hdtv-lol.mkv": 205408761, "bull.2016.207.hdtv-lol.nfo": 4359}
创建时间: 2018-10-28 10:22:35 大小:195.9 MB 文件数量:3 热度:22 最近下载:2025-08-03 07:50:06
    ... 681908224, "02.Черная кошка.(2016).WEB-DLVRip.RG.Russkie.serialy ... 681842688, "03.Черная кошка.(2016).WEB-DLVRip.RG.Russkie.serialy ... 681533440, "04.Черная кошка.(2016).WEB-DLVRip.RG.Russkie.serialy ... 680837120, "05.Черная кошка.(2016).WEB-DLVRip.RG.Russkie.serialy ...
创建时间: 2018-10-28 10:23:01 大小:10.16 GB 文件数量:16 热度:43 最近下载:2025-09-11 17:53:02
    {"Please Support!! Read More!!!.txt": 334, "A.Cure.for.Wellness.2016.1080p.10bit.BluRay.5.1.x265.HEVC-MZABI[PRiME].mkv": 2417952016}
创建时间: 2018-10-28 10:23:05 大小:2.25 GB 文件数量:2 热度:68 最近下载:2025-09-26 13:30:02
    {"Supernatural.S12E01.WEB-DLRip.Rus.Eng.DV.LostFilm.avi": 556642304, "Supernatural.S12E10.WEB-DLRip.Rus.Eng.DV.LostFilm.avi": 560279552, "Supernatural.s12e02.WEB-DLRip.XviD.rus.eng.LostFilm.avi": 525402112, "Supernatural.s12e03.WEB-DLRip.XviD.rus.eng. ...
创建时间: 2018-10-28 10:23:19 大小:4.95 GB 文件数量:10 热度:12 最近下载:2024-11-19 10:50:02
    {"Please Support!! Read More!!!.txt": 232, "Torrent Downloaded From 1337x.to.txt": 69, "Torrent Downloaded From ExtraTorrent.cc.txt": 446, "Collateral.Beauty.2016.BDRip.x264-GECKOS[PRiME].mkv": 571793449}
创建时间: 2018-10-28 10:23:44 大小:545.31 MB 文件数量:4 热度:32 最近下载:2025-02-26 11:01:55
    {"BLUDV.COM.png": 397035, "BLUDV ACESSE.url": 110, "Blackwood.2016.720p.WEBRip.x264.DUAL-WWW.BLDV.COM.mkv": 1475846596, "Blackwood.2016.720p.WEBRip.x264.DUAL-WWW.BLDV.COM.srt": 53667}
创建时间: 2018-10-28 10:24:22 大小:1.37 GB 文件数量:4 热度:34 最近下载:2025-10-03 07:52:02
    {"RARBG.txt": 30, "Wolf.Mother.2016.720p.BluRay.H264.AAC-RARBG.mp4": 1523804389}
创建时间: 2018-10-28 10:25:07 大小:1.42 GB 文件数量:2 热度:35 最近下载:2025-05-11 08:49:02
    {"Lucas Firmo UPLOADER.mp4": 1084536, "Assassinatos do Passado 1080p (2016) Dual Áudio BluRay 5.1 -- By - Lucas Firmo.mkv": 1455350144, "Assassinatos do Passado 1080p (2016) Dual Áudio BluRay 5.1 -- By - Lucas Firmo.srt": 55446}
创建时间: 2018-10-28 10:25:16 大小:1.36 GB 文件数量:3 热度:25 最近下载:2025-09-17 04:23:09